Terminal Aerodrome Forecast
Issued by NWS

Current Version | Previous Version | Graphics & Text | Print | Product List | Glossary Off
Versions: 1 2 3 4 5 6 7 8 9 10 11 12 13 14 15 16 17 18

392
FTUS41 KPBZ 132333
TAFHLG
TAF
KHLG 132333Z 1400/1424 30008KT P6SM BKN035
     FM140500 26004KT P6SM SCT035
     FM141500 15005KT P6SM SCT040=

USA.gov is the U.S. government's official web portal to all federal, state and local government web resources and services.